createdAt,value
2022-09-30T00:00:08.341Z,999.96
2022-09-30T00:03:16.266Z,999.99
2022-09-30T00:06:24.391Z,1000.04
2022-09-30T00:09:31.777Z,1000.05
2022-09-30T00:12:40.052Z,1000.01
2022-09-30T00:15:48.395Z,1000.06
2022-09-30T00:18:55.762Z,1000.06
2022-09-30T00:22:03.664Z,1000.07
2022-09-30T00:25:11.505Z,1000.12
2022-09-30T00:28:19.281Z,1000.15
2022-09-30T00:31:27.480Z,1000.15
2022-09-30T00:34:34.876Z,1000.15
2022-09-30T00:37:42.591Z,1000.15
2022-09-30T00:40:50.396Z,1000.17
2022-09-30T00:43:58.064Z,1000.25
2022-09-30T00:47:05.716Z,1000.14
2022-09-30T00:50:13.856Z,1000.23
2022-09-30T00:53:23.497Z,1000.19
2022-09-30T00:56:31.320Z,1000.14
2022-09-30T00:59:39.170Z,1000.14
2022-09-30T01:02:47.381Z,1000.19
2022-09-30T01:05:54.763Z,1000.24
2022-09-30T01:09:03.160Z,1000.25
2022-09-30T01:12:10.488Z,1000.18
2022-09-30T01:15:18.731Z,1000.18
2022-09-30T01:18:26.651Z,1000.22
2022-09-30T01:21:34.642Z,1000.28
2022-09-30T01:24:42.552Z,1000.28
2022-09-30T01:27:50.635Z,1000.30
2022-09-30T01:30:58.073Z,1000.23
2022-09-30T01:34:06.264Z,1000.25
2022-09-30T01:37:13.574Z,1000.21
2022-09-30T01:40:21.974Z,1000.23
2022-09-30T01:43:29.796Z,1000.29
2022-09-30T01:46:37.591Z,1000.28
2022-09-30T01:49:45.436Z,1000.36
2022-09-30T01:52:53.486Z,1000.36
2022-09-30T01:56:00.807Z,1000.37
2022-09-30T01:59:08.973Z,1000.36
2022-09-30T02:02:16.472Z,1000.42
2022-09-30T02:05:24.726Z,1000.47
2022-09-30T02:08:32.681Z,1000.48
2022-09-30T02:11:40.502Z,1000.52
2022-09-30T02:14:48.363Z,1000.54
2022-09-30T02:17:56.631Z,1000.47
2022-09-30T02:21:04.057Z,1000.47
2022-09-30T02:24:12.290Z,1000.48
2022-09-30T02:27:19.642Z,1000.48
2022-09-30T02:30:27.912Z,1000.56
2022-09-30T02:33:35.343Z,1000.55
2022-09-30T02:36:43.113Z,1000.49
2022-09-30T02:39:50.946Z,1000.50
2022-09-30T02:42:59.191Z,1000.49
2022-09-30T02:46:06.525Z,1000.45
2022-09-30T02:49:15.005Z,1000.44
2022-09-30T02:52:22.223Z,1000.41
2022-09-30T02:55:30.196Z,1000.47
2022-09-30T02:58:38.056Z,1000.54
2022-09-30T03:01:45.918Z,1000.51
2022-09-30T03:04:53.597Z,1000.55
2022-09-30T03:08:02.230Z,1000.50
2022-09-30T03:11:09.570Z,1000.53
2022-09-30T03:14:17.677Z,1000.67
2022-09-30T03:17:25.065Z,1000.69
2022-09-30T03:20:33.289Z,1000.67
2022-09-30T03:23:41.059Z,1000.72
2022-09-30T03:26:48.899Z,1000.77
2022-09-30T03:29:56.760Z,1000.81
2022-09-30T03:33:04.846Z,1000.87
2022-09-30T03:36:12.269Z,1000.89
2022-09-30T03:39:20.533Z,1000.91
2022-09-30T03:42:27.901Z,1000.93
2022-09-30T03:45:36.124Z,1000.90
2022-09-30T03:48:43.960Z,1000.93
2022-09-30T03:51:51.594Z,1001.04
2022-09-30T03:54:59.470Z,1001.04
2022-09-30T03:58:07.922Z,1001.09
2022-09-30T04:01:15.275Z,1001.11
2022-09-30T04:04:23.527Z,1001.06
2022-09-30T04:07:30.839Z,1001.09
2022-09-30T04:10:39.193Z,1001.06
2022-09-30T04:13:46.955Z,1001.06
2022-09-30T04:16:55.007Z,1001.08
2022-09-30T04:20:02.667Z,1001.12
2022-09-30T04:23:10.487Z,1001.19
2022-09-30T04:26:18.150Z,1001.22
2022-09-30T04:29:26.416Z,1001.22
2022-09-30T04:32:33.818Z,1001.26
2022-09-30T04:35:42.408Z,1001.25
2022-09-30T04:38:50.279Z,1001.28
2022-09-30T04:41:58.159Z,1001.29
2022-09-30T04:45:06.043Z,1001.33
2022-09-30T04:48:13.910Z,1001.36
2022-09-30T04:51:21.667Z,1001.45
2022-09-30T04:54:29.952Z,1001.43
2022-09-30T04:57:37.391Z,1001.46
2022-09-30T05:00:45.784Z,1001.57
2022-09-30T05:03:53.536Z,1001.56
2022-09-30T05:07:01.302Z,1001.61
2022-09-30T05:10:09.077Z,1001.68
2022-09-30T05:13:16.745Z,1001.69
2022-09-30T05:16:24.785Z,1001.77
2022-09-30T05:19:33.345Z,1001.73
2022-09-30T05:22:40.644Z,1001.73
2022-09-30T05:25:48.776Z,1001.83
2022-09-30T05:28:56.356Z,1001.79
2022-09-30T05:32:04.143Z,1001.84
2022-09-30T05:35:11.813Z,1001.89
2022-09-30T05:38:19.598Z,1001.94
2022-09-30T05:41:27.417Z,1001.99
2022-09-30T05:44:35.467Z,1002.01
2022-09-30T05:47:42.903Z,1002.07
2022-09-30T05:50:51.215Z,1002.14
2022-09-30T05:53:59.168Z,1002.21
2022-09-30T05:57:06.998Z,1002.23
2022-09-30T06:00:14.929Z,1002.23
2022-09-30T06:03:22.850Z,1002.29
2022-09-30T06:06:30.836Z,1002.26
2022-09-30T06:09:39.332Z,1002.24
2022-09-30T06:12:47.015Z,1002.31
2022-09-30T06:15:55.502Z,1002.25
2022-09-30T06:19:03.511Z,1002.26
2022-09-30T06:22:11.523Z,1002.34
2022-09-30T06:25:19.602Z,1002.37
2022-09-30T06:28:27.770Z,1002.41
2022-09-30T06:31:36.117Z,1002.49
2022-09-30T06:34:44.382Z,1002.46
2022-09-30T06:37:51.945Z,1002.47
2022-09-30T06:41:00.635Z,1002.50
2022-09-30T06:44:09.370Z,1002.49
2022-09-30T06:47:24.858Z,1002.47
2022-09-30T06:50:25.772Z,1002.52
2022-09-30T06:53:23.170Z,1002.58
2022-09-30T06:56:31.097Z,1002.56
2022-09-30T06:59:39.514Z,1002.58
2022-09-30T07:02:46.945Z,1002.61
2022-09-30T07:05:55.542Z,1002.70
2022-09-30T07:09:03.081Z,1002.57
2022-09-30T07:12:11.229Z,1002.66
2022-09-30T07:15:19.091Z,1002.77
2022-09-30T07:18:26.831Z,1002.77
2022-09-30T07:21:34.502Z,1002.74
2022-09-30T07:24:43.142Z,1002.78
2022-09-30T07:27:50.441Z,1002.77
2022-09-30T07:31:19.846Z,1002.73
2022-09-30T07:34:03.265Z,1002.77
2022-09-30T07:37:11.602Z,1002.82
2022-09-30T07:40:19.527Z,1002.92
2022-09-30T07:43:27.385Z,1002.85
2022-09-30T07:46:35.325Z,1002.82
2022-09-30T07:49:43.756Z,1002.89
2022-09-30T07:52:51.106Z,1002.98
2022-09-30T07:55:59.388Z,1002.97
2022-09-30T07:59:06.836Z,1002.92
2022-09-30T08:02:15.257Z,1002.94
2022-09-30T08:05:23.125Z,1002.94
2022-09-30T08:08:30.929Z,1002.99
2022-09-30T08:11:38.640Z,1003.00
2022-09-30T08:14:46.581Z,1002.95
2022-09-30T08:17:54.051Z,1002.98
2022-09-30T08:21:02.422Z,1002.96
2022-09-30T08:24:09.812Z,1002.95
2022-09-30T08:27:18.038Z,1002.97
2022-09-30T08:30:26.273Z,1002.98
2022-09-30T08:33:34.371Z,1003.10
2022-09-30T08:36:42.445Z,1003.06
2022-09-30T08:39:50.967Z,1003.05
2022-09-30T08:42:58.639Z,1003.11
2022-09-30T08:46:07.783Z,1003.16
2022-09-30T08:49:15.337Z,1003.13
2022-09-30T08:52:30.454Z,1003.17
2022-09-30T08:55:28.887Z,1003.21
2022-09-30T08:58:37.261Z,1003.23
2022-09-30T09:01:45.131Z,1003.23
2022-09-30T09:04:53.305Z,1003.18
2022-09-30T09:08:01.110Z,1003.29
2022-09-30T09:11:09.678Z,1003.23
2022-09-30T09:14:17.535Z,1003.28
2022-09-30T09:17:25.589Z,1003.30
2022-09-30T09:20:33.915Z,1003.26
2022-09-30T09:23:41.205Z,1003.30
2022-09-30T09:26:49.437Z,1003.31
2022-09-30T09:29:57.717Z,1003.29
2022-09-30T09:33:05.007Z,1003.21
2022-09-30T09:36:13.078Z,1003.18
2022-09-30T09:39:20.903Z,1003.14
2022-09-30T09:42:28.672Z,1003.17
2022-09-30T09:45:36.896Z,1003.16
2022-09-30T09:48:44.556Z,1003.07
2022-09-30T09:51:52.071Z,1003.04
2022-09-30T09:55:00.253Z,1003.04
2022-09-30T09:58:08.154Z,1003.02
2022-09-30T10:01:15.960Z,1003.00
2022-09-30T10:04:23.773Z,1003.04
2022-09-30T10:07:32.056Z,1002.93
2022-09-30T10:10:39.826Z,1002.91
2022-09-30T10:13:47.666Z,1002.91
2022-09-30T10:16:55.587Z,1002.95
2022-09-30T10:20:02.979Z,1002.91
2022-09-30T10:23:11.230Z,1002.92
2022-09-30T10:26:19.096Z,1003.03
2022-09-30T10:29:26.620Z,1002.98
2022-09-30T10:32:34.792Z,1003.02
2022-09-30T10:35:42.652Z,1003.06
2022-09-30T10:38:50.113Z,1003.01
2022-09-30T10:41:58.274Z,1002.99
2022-09-30T10:45:05.975Z,1003.03
2022-09-30T10:48:13.821Z,1002.98
2022-09-30T10:51:22.144Z,1003.01
2022-09-30T10:54:29.737Z,1002.92
2022-09-30T10:57:37.537Z,1002.82
2022-09-30T11:00:45.802Z,1002.86
2022-09-30T11:03:53.783Z,1002.87
2022-09-30T11:07:01.546Z,1002.83
2022-09-30T11:10:09.201Z,1002.84
2022-09-30T11:13:16.998Z,1002.83
2022-09-30T11:16:25.155Z,1002.78
2022-09-30T11:19:33.038Z,1002.83
2022-09-30T11:22:40.895Z,1002.73
2022-09-30T11:25:48.726Z,1002.77
2022-09-30T11:28:56.435Z,1002.79
2022-09-30T11:32:04.725Z,1002.80
2022-09-30T11:35:12.170Z,1002.73
2022-09-30T11:38:20.336Z,1002.70
2022-09-30T11:41:28.034Z,1002.70
2022-09-30T11:44:35.603Z,1002.72
2022-09-30T11:47:43.743Z,1002.68
2022-09-30T11:50:51.982Z,1002.81
2022-09-30T11:53:59.484Z,1002.79
2022-09-30T11:57:07.873Z,1002.80
2022-09-30T12:00:15.930Z,1002.72
2022-09-30T12:03:23.314Z,1002.78
2022-09-30T12:06:31.699Z,1002.82
2022-09-30T12:09:39.758Z,1002.83
2022-09-30T12:12:47.549Z,1002.91
2022-09-30T12:15:55.710Z,1002.82
2022-09-30T12:19:03.471Z,1002.82
2022-09-30T12:22:11.224Z,1002.78
2022-09-30T12:25:18.808Z,1002.84
2022-09-30T12:28:27.113Z,1002.87
2022-09-30T12:31:34.979Z,1002.76
2022-09-30T12:34:42.595Z,1002.75
2022-09-30T12:37:50.766Z,1002.75
2022-09-30T12:40:58.666Z,1002.73
2022-09-30T12:44:06.408Z,1002.79
2022-09-30T12:47:14.480Z,1002.73
2022-09-30T12:50:21.852Z,1002.77
2022-09-30T12:53:30.204Z,1002.68
2022-09-30T12:56:38.502Z,1002.66
2022-09-30T12:59:45.784Z,1002.63
2022-09-30T13:02:54.104Z,1002.62
2022-09-30T13:06:02.145Z,1002.66
2022-09-30T13:09:09.635Z,1002.68
2022-09-30T13:12:17.375Z,1002.70
2022-09-30T13:15:25.118Z,1002.60
2022-09-30T13:18:32.859Z,1002.60
2022-09-30T13:21:40.750Z,1002.60
2022-09-30T13:24:48.588Z,1002.54
2022-09-30T13:27:56.413Z,1002.59
2022-09-30T13:31:04.404Z,1002.62
2022-09-30T13:34:12.176Z,1002.61
2022-09-30T13:37:20.187Z,1002.57
2022-09-30T13:40:49.893Z,1002.53
2022-09-30T13:43:33.248Z,1002.58
2022-09-30T13:46:41.125Z,1002.55
2022-09-30T13:49:48.957Z,1002.53
2022-09-30T13:52:57.079Z,1002.43
2022-09-30T13:56:04.979Z,1002.49
2022-09-30T13:59:12.603Z,1002.49
2022-09-30T14:02:22.444Z,1002.54
2022-09-30T14:05:30.059Z,1002.53
2022-09-30T14:08:38.145Z,1002.53
2022-09-30T14:11:46.277Z,1002.47
2022-09-30T14:14:53.656Z,1002.44
2022-09-30T14:18:04.442Z,1002.52
2022-09-30T14:21:02.908Z,1002.45
2022-09-30T14:24:10.318Z,1002.57
2022-09-30T14:27:18.432Z,1002.54
2022-09-30T14:30:26.560Z,1002.50
2022-09-30T14:33:33.973Z,1002.38
2022-09-30T14:37:31.405Z,1002.41
2022-09-30T14:40:39.652Z,1002.53
2022-09-30T14:43:48.121Z,1002.53
2022-09-30T14:46:55.709Z,1002.52
2022-09-30T14:50:03.275Z,1002.64
2022-09-30T14:53:11.265Z,1002.56
2022-09-30T14:56:19.120Z,1002.51
2022-09-30T14:59:26.818Z,1002.49
2022-09-30T15:02:35.108Z,1002.51
2022-09-30T15:05:42.809Z,1002.51
2022-09-30T15:08:50.629Z,1002.47
2022-09-30T15:11:58.850Z,1002.44
2022-09-30T15:15:06.468Z,1002.47
2022-09-30T15:18:14.643Z,1002.48
2022-09-30T15:21:22.481Z,1002.44
2022-09-30T15:24:30.303Z,1002.42
2022-09-30T15:27:38.123Z,1002.36
2022-09-30T15:30:45.431Z,1002.34
2022-09-30T15:33:53.136Z,1002.39
2022-09-30T15:37:00.885Z,1002.39
2022-09-30T15:40:08.190Z,1002.40
2022-09-30T15:43:16.422Z,1002.33
2022-09-30T15:46:24.225Z,1002.34
2022-09-30T15:49:31.578Z,1002.42
2022-09-30T15:52:39.351Z,1002.40
2022-09-30T15:55:47.320Z,1002.34
2022-09-30T15:58:55.113Z,1002.29
2022-09-30T16:02:03.161Z,1002.37
2022-09-30T16:05:11.345Z,1002.35
2022-09-30T16:08:19.151Z,1002.39
2022-09-30T16:11:26.937Z,1002.42
2022-09-30T16:14:34.559Z,1002.36
2022-09-30T16:17:42.299Z,1002.31
2022-09-30T16:20:49.990Z,1002.35
2022-09-30T16:23:58.180Z,1002.33
2022-09-30T16:27:05.990Z,1002.24
2022-09-30T16:30:13.626Z,1002.28
2022-09-30T16:33:21.880Z,1002.31
2022-09-30T16:36:29.526Z,1002.31
2022-09-30T16:39:37.825Z,1002.32
2022-09-30T16:42:45.753Z,1002.35
2022-09-30T16:45:53.258Z,1002.30
2022-09-30T16:49:01.576Z,1002.34
2022-09-30T16:52:09.968Z,1002.26
2022-09-30T16:55:17.532Z,1002.25
2022-09-30T16:58:25.643Z,1002.30
2022-09-30T17:01:33.889Z,1002.30
2022-09-30T17:04:41.613Z,1002.30
2022-09-30T17:07:49.412Z,1002.42
2022-09-30T17:10:57.380Z,1002.42
2022-09-30T17:14:05.123Z,1002.43
2022-09-30T17:17:13.929Z,1002.46
2022-09-30T17:20:22.286Z,1002.64
2022-09-30T17:23:29.655Z,1002.61
2022-09-30T17:26:37.897Z,1002.56
2022-09-30T17:29:45.541Z,1002.61
2022-09-30T17:32:53.468Z,1002.69
2022-09-30T17:36:01.239Z,1002.59
2022-09-30T17:39:09.044Z,1002.65
2022-09-30T17:42:16.680Z,1002.61
2022-09-30T17:45:24.943Z,1002.52
2022-09-30T17:48:33.108Z,1002.51
2022-09-30T17:51:40.844Z,1002.55
2022-09-30T17:54:52.198Z,1002.53
2022-09-30T17:57:49.393Z,1002.53
2022-09-30T18:00:57.165Z,1002.53
2022-09-30T18:04:05.274Z,1002.55
2022-09-30T18:07:13.105Z,1002.52
2022-09-30T18:10:20.926Z,1002.51
2022-09-30T18:13:29.096Z,1002.57
2022-09-30T18:16:36.740Z,1002.62
2022-09-30T18:19:45.217Z,1002.65
2022-09-30T18:22:53.373Z,1002.68
2022-09-30T18:26:00.790Z,1002.65
2022-09-30T18:29:08.920Z,1002.70
2022-09-30T18:32:17.131Z,1002.60
2022-09-30T18:35:24.593Z,1002.65
2022-09-30T18:38:32.870Z,1002.63
2022-09-30T18:41:45.338Z,1002.74
2022-09-30T18:44:42.651Z,1002.69
2022-09-30T18:47:50.477Z,1002.68
2022-09-30T18:50:58.586Z,1002.72
2022-09-30T18:54:07.436Z,1002.71
2022-09-30T18:57:15.877Z,1002.75
2022-09-30T19:00:23.697Z,1002.74
2022-09-30T19:03:31.520Z,1002.70
2022-09-30T19:06:39.869Z,1002.74
2022-09-30T19:09:47.589Z,1002.68
2022-09-30T19:12:55.068Z,1002.66
2022-09-30T19:16:02.725Z,1002.62
2022-09-30T19:19:10.663Z,1002.59
2022-09-30T19:22:18.606Z,1002.57
2022-09-30T19:25:26.623Z,1002.57
2022-09-30T19:28:34.863Z,1002.50
2022-09-30T19:31:42.866Z,1002.46
2022-09-30T19:35:00.947Z,1002.44
2022-09-30T19:38:02.675Z,1002.42
2022-09-30T19:40:59.627Z,1002.40
2022-09-30T19:44:07.725Z,1002.38
2022-09-30T19:47:15.632Z,1002.41
2022-09-30T19:50:23.058Z,1002.39
2022-09-30T19:53:31.037Z,1002.46
2022-09-30T19:56:39.089Z,1002.50
2022-09-30T19:59:46.857Z,1002.43
2022-09-30T20:02:54.780Z,1002.40
2022-09-30T20:06:02.207Z,1002.41
2022-09-30T20:09:11.223Z,1002.33
2022-09-30T20:12:19.504Z,1002.34
2022-09-30T20:15:27.221Z,1002.24
2022-09-30T20:18:35.455Z,1002.28
2022-09-30T20:21:43.743Z,1002.19
2022-09-30T20:24:51.326Z,1002.26
2022-09-30T20:27:59.495Z,1002.28
2022-09-30T20:31:07.027Z,1002.29
2022-09-30T20:34:15.298Z,1002.31
2022-09-30T20:37:23.418Z,1002.34
2022-09-30T20:40:31.099Z,1002.41
2022-09-30T20:43:38.888Z,1002.33
2022-09-30T20:46:46.980Z,1002.38
2022-09-30T20:49:55.046Z,1002.36
2022-09-30T20:53:02.800Z,1002.36
2022-09-30T20:56:10.514Z,1002.39
2022-09-30T20:59:18.448Z,1002.42
2022-09-30T21:02:26.142Z,1002.40
2022-09-30T21:05:33.764Z,1002.39
2022-09-30T21:08:41.894Z,1002.45
2022-09-30T21:11:49.684Z,1002.46
2022-09-30T21:14:57.455Z,1002.51
2022-09-30T21:18:05.561Z,1002.44
2022-09-30T21:21:12.926Z,1002.44
2022-09-30T21:24:20.632Z,1002.33
2022-09-30T21:27:28.666Z,1002.36
2022-09-30T21:30:35.905Z,1002.31
2022-09-30T21:33:44.000Z,1002.29
2022-09-30T21:36:52.189Z,1002.24
2022-09-30T21:39:59.600Z,1002.21
2022-09-30T21:43:07.301Z,1002.22
2022-09-30T21:46:15.327Z,1002.18
2022-09-30T21:49:22.990Z,1002.18
2022-09-30T21:52:32.961Z,1002.07
2022-09-30T21:55:40.819Z,1002.08
2022-09-30T21:58:48.604Z,1002.00
2022-09-30T22:01:56.981Z,1001.95
2022-09-30T22:05:04.424Z,1001.90
2022-09-30T22:08:12.194Z,1001.90
2022-09-30T22:11:20.416Z,1001.92
2022-09-30T22:14:28.173Z,1001.86
2022-09-30T22:17:35.826Z,1001.91
2022-09-30T22:20:44.458Z,1001.87
2022-09-30T22:23:52.607Z,1001.89
2022-09-30T22:27:03.095Z,1001.81
2022-09-30T22:30:10.488Z,1001.82
2022-09-30T22:33:18.748Z,1001.74
2022-09-30T22:36:26.149Z,1001.74
2022-09-30T22:39:33.720Z,1001.75
2022-09-30T22:42:41.554Z,1001.60
2022-09-30T22:45:48.930Z,1001.61
2022-09-30T22:48:57.148Z,1001.50
2022-09-30T22:52:05.531Z,1001.53
2022-09-30T22:55:12.834Z,1001.51
2022-09-30T22:58:20.874Z,1001.45
2022-09-30T23:01:28.545Z,1001.42
2022-09-30T23:04:36.394Z,1001.35
2022-09-30T23:07:44.474Z,1001.42
2022-09-30T23:10:52.385Z,1001.34
2022-09-30T23:14:00.094Z,1001.34
2022-09-30T23:17:08.079Z,1001.36
2022-09-30T23:20:15.917Z,1001.27
2022-09-30T23:23:23.588Z,1001.25
2022-09-30T23:26:31.851Z,1001.27
2022-09-30T23:29:39.619Z,1001.27
2022-09-30T23:32:47.377Z,1001.27
2022-09-30T23:35:55.028Z,1001.19
2022-09-30T23:39:03.165Z,1001.18
2022-09-30T23:42:10.802Z,1001.19
2022-09-30T23:45:18.432Z,1001.14
2022-09-30T23:48:26.053Z,1001.16
2022-09-30T23:51:34.291Z,1001.17
2022-09-30T23:54:42.205Z,1001.13
2022-09-30T23:57:49.914Z,1001.12
